Time;durP1;ratioP1;P1;durP2;ratioP2;P2;SDS_P1;SDS_P2;PMS_P1;PMS_P2;Temp;Humidity;BMP_temperature;BMP_pressure;BME280_temperature;BME280_humidity;BME280_pressure;Samples;Min_cycle;Max_cycle;Signal;HPM_P1;HPM_P2
2023/01/01 00:01:48;;;;;;;27.65;15.13;;;;;;;8.30;70.49;97653.00;1833321;77;27364;-75
2023/01/01 00:04:15;;;;;;;20.88;12.00;;;;;;;8.26;70.44;97651.70;1811311;77;25677;-74
2023/01/01 00:06:43;;;;;;;21.62;12.18;;;;;;;8.25;70.62;97656.25;1790054;77;25753;-75
2023/01/01 00:11:55;;;;;;;16.30;8.85;;;;;;;8.28;70.75;97651.84;1786300;78;25682;-75
2023/01/01 00:14:22;;;;;;;16.70;9.10;;;;;;;8.29;70.81;97648.64;1808861;77;27352;-75
2023/01/01 00:16:49;;;;;;;17.45;9.03;;;;;;;8.32;70.88;97655.53;1803518;77;25707;-75
2023/01/01 00:19:16;;;;;;;18.87;9.75;;;;;;;8.35;70.84;97656.48;1816689;77;25687;-75
2023/01/01 00:21:42;;;;;;;24.57;11.40;;;;;;;8.34;70.77;97648.92;1784296;78;25689;-74
2023/01/01 00:24:09;;;;;;;21.75;10.63;;;;;;;8.36;70.74;97648.73;1784341;77;25653;-75
2023/01/01 00:26:36;;;;;;;18.62;10.55;;;;;;;8.37;70.90;97657.12;1784392;77;27392;-74
2023/01/01 00:29:04;;;;;;;15.25;9.18;;;;;;;8.40;70.80;97656.23;1784273;77;25619;-75
2023/01/01 00:31:31;;;;;;;18.05;10.00;;;;;;;8.35;70.71;97653.27;1799466;78;26348;-75
2023/01/01 00:33:58;;;;;;;18.82;10.40;;;;;;;8.38;70.88;97650.72;1801016;78;26146;-76
2023/01/01 00:36:27;;;;;;;20.05;10.23;;;;;;;8.46;70.96;97659.49;1784285;78;25800;-74
2023/01/01 00:38:54;;;;;;;20.72;10.90;;;;;;;8.53;70.86;97658.23;1784234;78;27466;-74
2023/01/01 00:41:22;;;;;;;23.77;11.50;;;;;;;8.59;70.83;97663.66;1784341;78;25820;-75
2023/01/01 00:43:49;;;;;;;19.45;10.72;;;;;;;8.66;70.74;97656.50;1784346;77;25742;-75
2023/01/01 00:46:16;;;;;;;17.62;9.35;;;;;;;8.70;70.66;97662.30;1816913;77;25399;-75
2023/01/01 00:48:42;;;;;;;15.63;9.13;;;;;;;8.72;70.55;97662.95;1784406;78;25795;-75
2023/01/01 00:51:09;;;;;;;14.95;8.30;;;;;;;8.73;70.49;97659.23;1817120;77;27393;-74
2023/01/01 00:53:36;;;;;;;13.28;7.83;;;;;;;8.74;70.42;97667.63;1815563;78;25713;-74
2023/01/01 00:56:04;;;;;;;11.38;7.35;;;;;;;8.78;70.36;97670.27;1784344;77;25748;-76
2023/01/01 00:58:31;;;;;;;12.07;7.30;;;;;;;8.84;70.28;97672.17;1784401;77;26166;-76
2023/01/01 01:00:58;;;;;;;9.43;6.05;;;;;;;8.90;70.20;97671.41;1784322;78;26210;-74
2023/01/01 01:03:28;;;;;;;14.10;7.70;;;;;;;8.98;70.05;97667.22;1803532;78;27394;-75
2023/01/01 01:06:05;;;;;;;11.97;6.97;;;;;;;9.06;69.94;97664.08;1784234;78;25432;-74
2023/01/01 01:08:34;;;;;;;11.55;7.00;;;;;;;9.11;69.81;97668.35;1792052;77;25871;-75
2023/01/01 01:11:09;;;;;;;12.50;6.83;;;;;;;9.18;69.66;97663.83;1808018;78;25412;-76
2023/01/01 01:13:40;;;;;;;12.82;6.90;;;;;;;9.21;69.51;97665.62;1774691;78;25807;-75
2023/01/01 01:16:23;;;;;;;11.87;7.07;;;;;;;9.24;69.39;97656.33;1802418;78;27353;-75
2023/01/01 01:18:54;;;;;;;10.38;6.75;;;;;;;9.26;69.25;97661.02;1802098;79;25681;-74
2023/01/01 01:21:22;;;;;;;16.37;7.53;;;;;;;9.30;69.18;97666.30;1744175;80;25841;-75
2023/01/01 01:23:50;;;;;;;10.50;6.65;;;;;;;9.33;69.11;97661.87;1743566;80;26369;-75
2023/01/01 01:26:21;;;;;;;11.00;6.53;;;;;;;9.34;69.00;97667.58;1743622;80;25697;-75
2023/01/01 01:28:49;;;;;;;9.47;6.10;;;;;;;9.36;68.90;97660.14;1693958;83;27412;-75
2023/01/01 01:31:17;;;;;;;10.30;6.00;;;;;;;9.38;68.82;97654.88;1693498;83;25848;-75
2023/01/01 01:33:45;;;;;;;9.18;5.80;;;;;;;9.43;68.78;97652.09;1693657;83;25958;-75
2023/01/01 01:36:13;;;;;;;9.98;6.60;;;;;;;9.46;68.68;97651.19;1693487;83;25888;-76
2023/01/01 01:38:40;;;;;;;10.10;6.17;;;;;;;9.49;68.57;97644.06;1693622;83;25920;-75
2023/01/01 01:41:08;;;;;;;9.50;5.75;;;;;;;9.52;68.50;97639.63;1693515;83;27414;-74
2023/01/01 01:43:40;;;;;;;9.43;5.78;;;;;;;9.55;68.38;97640.55;1693572;83;25844;-75
2023/01/01 01:46:18;;;;;;;9.98;5.78;;;;;;;9.57;68.28;97641.19;1693651;83;32775;-75
2023/01/01 01:48:49;;;;;;;11.18;5.83;;;;;;;9.59;68.19;97645.87;1590900;90;25843;-75
2023/01/01 01:51:21;;;;;;;9.38;6.33;;;;;;;9.58;68.13;97640.16;1591263;90;25856;-74
2023/01/01 01:53:53;;;;;;;9.95;6.42;;;;;;;9.57;68.00;97632.27;1591344;90;32874;-74
2023/01/01 01:56:24;;;;;;;12.45;6.72;;;;;;;9.55;67.89;97632.47;1591294;90;26320;-74
2023/01/01 01:58:51;;;;;;;12.50;7.33;;;;;;;9.53;67.83;97631.86;1594070;88;25845;-74
2023/01/01 02:01:18;;;;;;;11.25;7.17;;;;;;;9.51;67.74;97635.78;1591033;90;25905;-75
2023/01/01 02:03:57;;;;;;;9.38;6.20;;;;;;;9.48;67.77;97630.27;1591138;90;25741;-74
2023/01/01 02:06:29;;;;;;;12.82;7.20;;;;;;;9.46;67.67;97641.75;1589521;90;26907;-75
2023/01/01 02:08:58;;;;;;;12.88;7.35;;;;;;;9.41;67.72;97633.45;1591333;90;25336;-75
2023/01/01 02:11:25;;;;;;;12.90;7.35;;;;;;;9.39;67.67;97641.73;1598420;88;25968;-74
2023/01/01 02:13:53;;;;;;;11.83;7.35;;;;;;;9.36;67.66;97647.50;1580835;88;26975;-75
2023/01/01 02:16:43;;;;;;;15.08;7.60;;;;;;;9.33;67.56;97647.89;1585409;89;25814;-74
2023/01/01 02:19:44;;;;;;;10.55;6.55;;;;;;;9.27;67.51;97645.17;1572322;89;27610;-75
2023/01/01 02:22:19;;;;;;;11.30;6.85;;;;;;;9.16;67.45;97653.80;1566727;90;25837;-75
2023/01/01 02:25:11;;;;;;;13.15;6.85;;;;;;;9.10;67.53;97645.97;1557373;89;25863;-75
2023/01/01 02:28:07;;;;;;;10.97;6.07;;;;;;;8.99;67.27;97646.52;1647769;86;25746;-75
2023/01/01 02:30:36;;;;;;;12.15;6.12;;;;;;;8.99;67.27;97646.52;1645522;86;25746;-74
2023/01/01 02:33:08;;;;;;;8.25;5.50;;;;;;;8.91;67.55;97654.23;1682514;84;27401;-74
2023/01/01 02:35:41;;;;;;;8.33;5.25;;;;;;;8.84;67.58;97652.49;1688508;84;25802;-75
2023/01/01 02:38:31;;;;;;;9.53;6.22;;;;;;;8.81;67.65;97652.39;1695760;84;25876;-75
2023/01/01 02:41:09;;;;;;;10.50;6.20;;;;;;;8.73;67.58;97653.85;1684123;84;25640;-75
2023/01/01 02:43:37;;;;;;;10.68;7.12;;;;;;;8.62;67.70;97648.99;1617522;87;25744;-74
2023/01/01 02:46:10;;;;;;;10.68;6.08;;;;;;;8.58;67.76;97658.47;1639124;87;27434;-74
2023/01/01 02:48:49;;;;;;;;;;;;;;;8.53;67.74;97654.20;1639083;87;25810;-75
2023/01/01 02:51:35;;;;;;;11.03;6.30;;;;;;;8.43;67.72;97657.72;1604733;88;25720;-74
2023/01/01 02:54:18;;;;;;;10.05;6.62;;;;;;;8.24;67.86;97651.89;1541984;92;26611;-75
2023/01/01 02:57:08;;;;;;;12.45;7.83;;;;;;;8.15;68.12;97654.39;1541807;92;25708;-75
2023/01/01 03:03:07;;;;;;;13.28;7.12;;;;;;;7.99;68.24;97643.85;1536504;92;25384;-74
2023/01/01 03:06:21;;;;;;;15.03;8.75;;;;;;;7.91;68.46;97645.31;1536645;93;25830;-74
2023/01/01 03:08:13;;;;;;;12.85;7.87;;;;;;;7.86;68.54;97655.28;1534842;93;26027;-74
2023/01/01 03:10:44;;;;;;;11.43;7.15;;;;;;;7.84;68.56;97656.52;1534652;93;26516;-74
2023/01/01 03:13:43;;;;;;;12.07;6.90;;;;;;;7.79;68.56;97652.20;1536944;92;28364;-74
2023/01/01 03:16:39;;;;;;;9.95;6.22;;;;;;;7.72;68.65;97641.89;1532068;93;25850;-75
2023/01/01 03:19:19;;;;;;;12.98;6.20;;;;;;;7.63;68.72;97640.30;1487341;96;25958;-74
2023/01/01 03:22:06;;;;;;;9.38;6.45;;;;;;;7.55;68.77;97643.94;1487100;96;25826;-75
2023/01/01 03:24:59;;;;;;;11.30;5.85;;;;;;;7.51;68.85;97638.09;1505464;95;26650;-75
2023/01/01 03:27:48;;;;;;;8.03;5.03;;;;;;;7.47;68.95;97635.48;1505353;95;27528;-75
2023/01/01 03:30:19;;;;;;;7.65;5.28;;;;;;;7.41;69.02;97630.83;1504959;95;26085;-75
2023/01/01 03:32:59;;;;;;;9.05;5.33;;;;;;;7.40;69.13;97631.84;1496261;95;25910;-75
2023/01/01 03:35:49;;;;;;;9.08;5.95;;;;;;;7.36;69.13;97633.26;1441424;99;25880;-74
2023/01/01 03:38:23;;;;;;;8.00;5.55;;;;;;;7.34;69.20;97638.48;1440152;99;25923;-74
2023/01/01 03:40:55;;;;;;;8.98;5.25;;;;;;;7.26;69.10;97634.53;1385277;101;28252;-75
2023/01/01 03:43:45;;;;;;;8.40;4.85;;;;;;;7.21;69.46;97635.10;1397428;101;25883;-74
2023/01/01 03:46:13;;;;;;;5.60;4.05;;;;;;;7.25;69.67;97639.06;1397300;101;25916;-74
2023/01/01 03:48:55;;;;;;;7.47;4.92;;;;;;;7.30;69.81;97647.41;1412990;99;26878;-75
2023/01/01 03:51:45;;;;;;;10.35;4.78;;;;;;;7.34;69.91;97634.45;1415442;99;25861;-74
2023/01/01 03:54:35;;;;;;;8.85;4.85;;;;;;;7.39;70.00;97641.43;1353489;104;28167;-75
2023/01/01 03:57:41;;;;;;;9.05;5.50;;;;;;;7.39;69.94;97650.32;1354763;104;25953;-74
2023/01/01 04:00:18;;;;;;;9.03;5.22;;;;;;;7.40;69.91;97645.28;1351808;105;25944;-74
2023/01/01 04:02:49;;;;;;;8.83;5.30;;;;;;;7.40;69.99;97631.84;1351725;104;26074;-74
2023/01/01 04:05:18;;;;;;;7.53;4.25;;;;;;;7.41;70.03;97638.05;1351340;104;25912;-75
2023/01/01 04:07:44;;;;;;;8.68;5.10;;;;;;;7.44;70.10;97627.78;1351533;104;27478;-75
2023/01/01 04:12:55;;;;;;;5.10;3.87;;;;;;;7.49;69.96;97625.35;1296086;108;25994;-75
2023/01/01 04:15:25;;;;;;;7.15;4.60;;;;;;;7.47;69.88;97627.42;1322536;108;25870;-74
2023/01/01 04:17:53;;;;;;;8.05;3.92;;;;;;;7.43;69.89;97622.59;1344070;104;25854;-74
2023/01/01 04:20:21;;;;;;;7.58;4.30;;;;;;;7.38;69.88;97628.51;1369259;104;27492;-74
2023/01/01 04:22:48;;;;;;;7.92;4.80;;;;;;;7.35;69.94;97618.16;1403792;100;25916;-74
2023/01/01 04:25:18;;;;;;;9.45;6.35;;;;;;;7.35;70.14;97623.53;1428798;100;25393;-74
2023/01/01 04:27:45;;;;;;;6.53;4.08;;;;;;;7.37;70.16;97618.78;1428636;100;25416;-74
2023/01/01 04:30:14;;;;;;;5.62;3.52;;;;;;;7.49;70.21;97622.67;1428774;100;25941;-74
2023/01/01 04:32:41;;;;;;;6.12;3.87;;;;;;;7.57;70.16;97614.53;1535959;91;27547;-74
2023/01/01 04:35:13;;;;;;;7.10;3.98;;;;;;;7.63;70.06;97620.16;1541678;92;25878;-75
2023/01/01 04:37:42;;;;;;;8.60;4.20;;;;;;;7.64;69.99;97616.45;1609424;85;25960;-75
2023/01/01 04:40:11;;;;;;;8.73;4.28;;;;;;;7.66;69.95;97622.47;1664722;85;26161;-74
2023/01/01 04:42:38;;;;;;;6.75;3.55;;;;;;;7.69;70.06;97622.94;1680801;85;25843;-75
2023/01/01 04:45:07;;;;;;;4.00;3.02;;;;;;;7.78;69.99;97625.84;1666894;85;28026;-74
2023/01/01 04:47:34;;;;;;;7.58;4.10;;;;;;;7.82;69.90;97628.98;1668496;85;25835;-75
2023/01/01 04:50:00;;;;;;;5.28;3.10;;;;;;;7.85;69.83;97624.55;1677037;85;25907;-75
2023/01/01 04:52:27;;;;;;;3.90;2.85;;;;;;;7.90;69.81;97622.15;1659004;85;26153;-74
2023/01/01 04:54:54;;;;;;;5.50;2.80;;;;;;;8.00;69.81;97616.46;1665062;85;25920;-74
2023/01/01 04:57:20;;;;;;;3.70;2.65;;;;;;;8.08;69.70;97623.09;1657373;86;28184;-74
2023/01/01 04:59:47;;;;;;;3.95;2.60;;;;;;;8.18;69.63;97623.09;1657249;86;25809;-74
2023/01/01 05:02:14;;;;;;;6.65;3.95;;;;;;;8.30;69.81;97632.83;1671157;85;25345;-76
2023/01/01 05:04:40;;;;;;;7.33;3.60;;;;;;;8.36;69.43;97636.63;1664055;85;25874;-74
2023/01/01 05:07:07;;;;;;;6.85;3.02;;;;;;;8.38;69.28;97619.79;1685717;85;25775;-73
2023/01/01 05:09:33;;;;;;;4.28;3.17;;;;;;;8.45;69.27;97622.85;1739596;79;27378;-74
2023/01/01 05:12:00;;;;;;;7.42;3.47;;;;;;;8.55;69.14;97613.14;1819355;77;25696;-75
2023/01/01 05:14:27;;;;;;;4.10;2.72;;;;;;;8.69;69.02;97619.47;1786569;78;25722;-76
2023/01/01 05:16:53;;;;;;;5.45;3.60;;;;;;;8.78;68.90;97608.88;1786162;77;25909;-74
2023/01/01 05:19:20;;;;;;;6.42;3.27;;;;;;;8.86;68.77;97612.76;1786372;78;25638;-75
2023/01/01 05:21:47;;;;;;;4.75;3.40;;;;;;;8.94;68.66;97625.55;1786436;78;27383;-74
2023/01/01 05:24:14;;;;;;;5.03;3.65;;;;;;;9.00;68.57;97631.52;1786390;78;25690;-74
2023/01/01 05:26:44;;;;;;;3.87;2.98;;;;;;;9.06;68.34;97629.08;1786421;78;25713;-76
2023/01/01 05:29:11;;;;;;;4.50;3.27;;;;;;;9.15;68.22;97626.03;1807082;77;26447;-74
2023/01/01 05:31:38;;;;;;;3.85;2.90;;;;;;;9.23;68.07;97629.08;1816070;77;25709;-74
2023/01/01 05:34:04;;;;;;;7.67;3.95;;;;;;;9.30;67.84;97633.47;1788952;77;27397;-75
2023/01/01 05:36:37;;;;;;;10.03;5.22;;;;;;;9.36;67.67;97613.00;1786022;78;25167;-74
2023/01/01 05:39:08;;;;;;;;;;;;;;;9.39;67.49;97613.95;1789167;78;25970;-74
2023/01/01 05:41:35;;;;;;;7.92;4.10;;;;;;;9.40;67.14;97607.53;1786400;77;25630;-74
2023/01/01 05:44:07;;;;;;;10.15;3.85;;;;;;;9.38;67.22;97608.25;1825854;77;26158;-74
2023/01/01 05:46:34;;;;;;;7.65;4.10;;;;;;;9.40;67.15;97608.88;1810499;77;27330;-74
2023/01/01 05:49:01;;;;;;;4.97;3.45;;;;;;;9.42;66.98;97612.19;1786271;77;25897;-74
2023/01/01 05:51:29;;;;;;;6.05;3.70;;;;;;;9.46;66.89;97619.36;1786091;78;26808;-74
2023/01/01 05:53:57;;;;;;;6.25;4.42;;;;;;;9.48;66.71;97628.09;1786937;77;26453;-74
2023/01/01 05:56:24;;;;;;;6.70;4.25;;;;;;;9.49;66.59;97625.71;1817924;77;25925;-74
2023/01/01 05:58:51;;;;;;;7.05;4.53;;;;;;;9.51;66.49;97629.05;1785923;78;27477;-76
2023/01/01 06:01:25;;;;;;;6.87;3.98;;;;;;;9.53;66.46;97621.08;1819375;77;25736;-74
2023/01/01 06:03:54;;;;;;;6.15;4.58;;;;;;;9.58;66.34;97628.03;1786509;78;25714;-74
2023/01/01 06:06:24;;;;;;;25.75;12.73;;;;;;;9.62;66.27;97625.78;1796164;77;26441;-76
2023/01/01 06:08:54;;;;;;;23.52;13.03;;;;;;;9.66;66.12;97639.19;1786303;78;25725;-76
2023/01/01 06:11:21;;;;;;;9.10;5.67;;;;;;;9.70;66.00;97638.56;1818726;77;27394;-75
2023/01/01 06:13:53;;;;;;;6.00;4.35;;;;;;;9.80;65.96;97637.36;1819127;77;25416;-74
2023/01/01 06:16:20;;;;;;;6.05;4.37;;;;;;;9.90;65.82;97632.45;1786325;78;26043;-76
2023/01/01 06:18:46;;;;;;;9.48;5.67;;;;;;;9.98;65.60;97637.66;1786024;78;25732;-74
2023/01/01 06:21:17;;;;;;;8.30;5.05;;;;;;;10.06;65.44;97638.30;1786434;78;25829;-74
2023/01/01 06:23:44;;;;;;;4.92;3.67;;;;;;;10.14;65.30;97639.17;1786300;78;27328;-76
2023/01/01 06:26:17;;;;;;;7.10;4.22;;;;;;;10.19;65.13;97640.24;1809227;77;25904;-75
2023/01/01 06:28:45;;;;;;;5.62;4.08;;;;;;;10.26;64.96;97645.67;1801725;77;25730;-75
2023/01/01 06:31:15;;;;;;;7.42;4.08;;;;;;;10.31;64.89;97653.97;1810164;78;25834;-74
2023/01/01 06:33:43;;;;;;;5.35;3.90;;;;;;;10.33;64.73;97651.39;1769530;80;25766;-74
2023/01/01 06:36:13;;;;;;;6.75;3.75;;;;;;;10.36;64.64;97657.73;1805076;79;28269;-76
2023/01/01 06:38:44;;;;;;;5.60;3.90;;;;;;;10.38;64.60;97657.02;1812710;79;25711;-74
2023/01/01 06:41:17;;;;;;;5.30;3.75;;;;;;;10.39;64.54;97660.00;1755523;80;26761;-74
2023/01/01 06:43:44;;;;;;;7.08;3.92;;;;;;;10.39;64.47;97657.30;1780604;79;25693;-74
2023/01/01 06:46:20;;;;;;;6.30;4.10;;;;;;;10.41;64.41;97667.38;1754275;80;25468;-74
2023/01/01 06:48:56;;;;;;;7.22;4.80;;;;;;;10.43;64.30;97666.66;1782850;79;28177;-75
2023/01/01 06:51:28;;;;;;;7.05;4.53;;;;;;;10.48;64.22;97667.93;1748543;81;25709;-74
2023/01/01 06:54:01;;;;;;;6.53;3.95;;;;;;;10.50;64.11;97665.86;1691761;84;34886;-74
2023/01/01 06:56:28;;;;;;;7.45;4.85;;;;;;;10.54;64.02;97661.70;1696069;84;26475;-74
2023/01/01 06:58:56;;;;;;;8.30;5.22;;;;;;;10.59;63.92;97668.67;1694286;84;25759;-74
2023/01/01 07:01:28;;;;;;;8.35;4.97;;;;;;;10.63;63.77;97676.14;1680889;84;27454;-75
2023/01/01 07:04:05;;;;;;;8.80;4.95;;;;;;;10.70;63.73;97676.17;1691590;84;25591;-75
2023/01/01 07:06:33;;;;;;;11.33;5.37;;;;;;;10.77;63.40;97672.95;1735907;81;25818;-77
2023/01/01 07:09:00;;;;;;;13.65;6.62;;;;;;;10.85;63.33;97670.06;1715288;81;25714;-74
2023/01/01 07:11:28;;;;;;;15.13;6.85;;;;;;;10.92;63.19;97684.39;1680767;85;26473;-74
2023/01/01 07:13:55;;;;;;;14.55;9.33;;;;;;;10.98;63.03;97694.91;1699105;83;28183;-75
2023/01/01 07:16:23;;;;;;;14.98;10.40;;;;;;;11.00;63.06;97709.84;1698867;83;25801;-76
2023/01/01 07:18:51;;;;;;;8.83;5.58;;;;;;;10.99;62.99;97721.68;1699723;81;25897;-75
2023/01/01 07:21:30;;;;;;;9.08;5.83;;;;;;;10.99;62.95;97723.58;1648727;86;25825;-75
2023/01/01 07:24:04;;;;;;;7.37;4.83;;;;;;;11.02;62.94;97719.92;1648679;86;25736;-75
2023/01/01 07:26:32;;;;;;;7.85;4.92;;;;;;;11.02;62.79;97730.73;1648864;86;27396;-74
2023/01/01 07:29:00;;;;;;;7.62;5.20;;;;;;;11.00;62.64;97709.84;1642729;86;25781;-75
2023/01/01 07:31:27;;;;;;;7.20;4.10;;;;;;;11.05;62.54;97716.82;1705054;83;26627;-74
2023/01/01 07:33:53;;;;;;;6.37;3.80;;;;;;;11.13;62.43;97722.02;1704631;83;26445;-74
2023/01/01 07:36:20;;;;;;;6.37;3.70;;;;;;;11.23;62.36;97731.59;1705389;83;25719;-75
2023/01/01 07:38:47;;;;;;;6.90;5.15;;;;;;;11.33;62.07;97725.25;1705045;83;28224;-76
2023/01/01 07:41:13;;;;;;;6.20;4.25;;;;;;;11.41;62.04;97743.95;1705507;83;25791;-74
2023/01/01 07:43:40;;;;;;;6.47;3.70;;;;;;;11.46;61.87;97744.17;1705707;83;25802;-76
2023/01/01 07:46:12;;;;;;;8.10;5.33;;;;;;;11.47;61.73;97761.51;1704854;83;26506;-75
2023/01/01 07:48:38;;;;;;;6.92;4.28;;;;;;;11.49;61.62;97758.08;1705501;83;25786;-75
2023/01/01 07:51:05;;;;;;;7.10;4.47;;;;;;;11.55;61.53;97767.25;1774514;78;28148;-74
2023/01/01 07:53:32;;;;;;;13.20;10.43;;;;;;;11.59;61.39;97763.61;1822842;77;25798;-77
2023/01/01 07:55:58;;;;;;;25.45;20.68;;;;;;;11.61;61.28;97767.75;1814134;77;25731;-77
2023/01/01 07:58:25;;;;;;;12.68;8.90;;;;;;;11.62;61.30;97764.00;1806371;78;26395;-74
2023/01/01 08:00:52;;;;;;;8.28;6.33;;;;;;;11.63;61.16;97773.78;1809015;78;25789;-75
2023/01/01 08:03:18;;;;;;;6.65;4.08;;;;;;;11.68;61.02;97775.87;1811660;77;27353;-76
2023/01/01 08:05:45;;;;;;;7.35;4.15;;;;;;;11.71;60.95;97778.97;1800602;78;25685;-75
2023/01/01 08:08:12;;;;;;;6.67;4.10;;;;;;;11.75;60.77;97775.33;1797255;77;25711;-74
2023/01/01 08:10:38;;;;;;;5.40;4.40;;;;;;;11.80;60.65;97788.58;1774853;78;25669;-74
2023/01/01 08:13:07;;;;;;;6.83;4.35;;;;;;;11.85;60.59;97791.47;1775022;78;25675;-74
2023/01/01 08:15:34;;;;;;;5.45;3.95;;;;;;;11.90;60.41;97798.97;1815789;78;27367;-75
2023/01/01 08:18:04;;;;;;;5.78;4.22;;;;;;;11.93;60.44;97803.97;1789320;78;25817;-76
2023/01/01 08:20:32;;;;;;;7.58;5.15;;;;;;;11.94;60.43;97799.39;1793867;78;25709;-74
2023/01/01 08:22:59;;;;;;;6.33;4.45;;;;;;;11.95;60.23;97802.41;1786057;78;25774;-75
2023/01/01 08:25:26;;;;;;;6.87;4.62;;;;;;;11.96;60.15;97798.11;1761867;78;26713;-74
2023/01/01 08:27:52;;;;;;;5.47;3.60;;;;;;;12.03;59.95;97807.59;1789751;78;27328;-75
2023/01/01 08:30:19;;;;;;;5.78;4.10;;;;;;;12.10;59.70;97811.09;1818572;78;25785;-74
2023/01/01 08:32:45;;;;;;;6.65;3.77;;;;;;;12.17;59.68;97818.70;1795663;78;25723;-77
2023/01/01 08:35:12;;;;;;;6.12;4.62;;;;;;;12.23;59.53;97810.55;1761998;78;26436;-74
2023/01/01 08:37:39;;;;;;;6.78;4.65;;;;;;;12.28;59.31;97804.52;1779679;78;25712;-75
2023/01/01 08:40:08;;;;;;;6.22;4.20;;;;;;;12.34;59.26;97808.23;1818614;78;27333;-76
2023/01/01 08:42:35;;;;;;;6.92;4.20;;;;;;;12.38;59.21;97817.60;1804739;78;25203;-74
2023/01/01 08:45:02;;;;;;;5.70;4.17;;;;;;;12.40;59.16;97827.18;1761855;78;25719;-76
2023/01/01 08:47:28;;;;;;;5.15;4.10;;;;;;;12.43;58.96;97828.11;1761724;78;25633;-74
2023/01/01 08:49:55;;;;;;;6.95;4.10;;;;;;;12.48;58.85;97820.69;1788154;78;25635;-74
2023/01/01 08:52:22;;;;;;;8.50;4.83;;;;;;;12.54;58.76;97824.74;1774945;78;28164;-74
2023/01/01 08:54:49;;;;;;;6.72;4.78;;;;;;;12.55;58.75;97835.89;1761893;78;25197;-74
2023/01/01 08:57:15;;;;;;;9.03;5.40;;;;;;;12.60;58.59;97836.06;1761952;78;25703;-74
2023/01/01 08:59:42;;;;;;;9.40;6.22;;;;;;;12.66;58.45;97830.84;1762033;78;25738;-76
2023/01/01 09:02:11;;;;;;;7.50;5.03;;;;;;;12.71;58.38;97822.38;1795748;78;25963;-75
2023/01/01 09:04:37;;;;;;;8.23;4.75;;;;;;;12.74;58.19;97834.14;1806877;78;27357;-76
2023/01/01 09:07:04;;;;;;;9.20;5.60;;;;;;;12.78;58.18;97829.13;1778324;78;26240;-74
2023/01/01 09:09:31;;;;;;;6.15;4.87;;;;;;;12.83;58.24;97826.07;1761935;78;25683;-74
2023/01/01 09:12:02;;;;;;;7.72;4.95;;;;;;;12.84;58.20;97826.91;1761886;78;25687;-74
2023/01/01 09:14:27;;;;;;;11.68;7.35;;;;;;;12.84;58.10;97818.77;1758442;78;25264;-74
2023/01/01 09:16:53;;;;;;;8.73;6.78;;;;;;;12.83;58.03;97815.23;1793789;78;27326;-75
2023/01/01 09:19:20;;;;;;;10.50;6.78;;;;;;;12.83;57.95;97822.01;1810071;78;25696;-75
2023/01/01 09:21:47;;;;;;;10.78;6.30;;;;;;;12.86;58.06;97827.52;1764203;77;25664;-76
2023/01/01 09:24:13;;;;;;;8.28;5.85;;;;;;;12.88;58.06;97835.75;1764161;77;25751;-75
2023/01/01 09:26:40;;;;;;;8.08;5.65;;;;;;;12.91;57.89;97831.78;1764366;77;25722;-75
2023/01/01 09:29:06;;;;;;;8.48;5.25;;;;;;;12.93;57.88;97831.02;1797467;78;27421;-75
2023/01/01 09:31:33;;;;;;;10.82;8.00;;;;;;;12.94;57.67;97819.14;1769915;78;25762;-74
2023/01/01 09:34:00;;;;;;;7.10;5.45;;;;;;;12.99;57.74;97823.40;1764300;77;25749;-74
2023/01/01 09:36:32;;;;;;;9.50;5.22;;;;;;;13.01;57.64;97817.24;1770228;78;25735;-76
2023/01/01 09:38:59;;;;;;;6.67;4.80;;;;;;;13.06;57.54;97823.34;1821613;78;25459;-76
2023/01/01 09:41:38;;;;;;;6.08;5.00;;;;;;;13.11;57.52;97822.19;1817783;78;28385;-75
2023/01/01 09:44:28;;;;;;;6.22;5.33;;;;;;;13.17;57.49;97822.69;1761221;77;25855;-75
2023/01/01 09:46:59;;;;;;;6.00;4.90;;;;;;;13.30;57.50;97819.38;1801303;78;25677;-76
2023/01/01 09:49:37;;;;;;;8.40;4.80;;;;;;;13.44;57.22;97822.00;1764228;78;25681;-76
2023/01/01 09:52:05;;;;;;;8.55;5.95;;;;;;;13.55;57.12;97820.77;1789364;78;25669;-75
2023/01/01 09:54:46;;;;;;;9.13;6.20;;;;;;;13.68;56.87;97816.59;1796321;79;27442;-75
2023/01/01 09:57:13;;;;;;;9.73;6.22;;;;;;;13.76;56.83;97815.52;1794420;79;25776;-75
2023/01/01 09:59:40;;;;;;;7.97;6.10;;;;;;;13.85;56.91;97814.70;1795036;79;25783;-76
2023/01/01 10:02:33;;;;;;;7.65;5.65;;;;;;;13.93;56.83;97804.38;1796174;79;26634;-76
2023/01/01 10:05:21;;;;;;;9.18;5.70;;;;;;;14.02;56.77;97815.25;1786773;79;25754;-75
2023/01/01 10:07:55;;;;;;;7.10;5.10;;;;;;;14.16;56.43;97818.67;1784359;78;27461;-76
2023/01/01 10:10:40;;;;;;;10.72;6.53;;;;;;;14.40;56.43;97818.35;1777856;79;43239;-75
2023/01/01 10:13:28;;;;;;;8.68;5.35;;;;;;;14.74;56.55;97806.87;1704181;83;25866;-76
2023/01/01 10:16:00;;;;;;;8.53;5.22;;;;;;;15.05;55.46;97805.02;1699343;83;25719;-75
2023/01/01 10:18:32;;;;;;;7.60;5.42;;;;;;;15.38;55.23;97806.73;1706604;83;32398;-75
2023/01/01 10:21:16;;;;;;;10.23;6.22;;;;;;;15.66;54.73;97805.30;1692398;84;28351;-74
2023/01/01 10:24:26;;;;;;;10.90;6.25;;;;;;;15.87;54.52;97796.56;1683905;84;25814;-76
2023/01/01 10:26:55;;;;;;;9.20;5.40;;;;;;;16.11;53.63;97798.23;1683949;84;25762;-76
2023/01/01 10:29:41;;;;;;;6.42;5.00;;;;;;;16.35;53.42;97794.95;1654605;85;26537;-75
2023/01/01 10:32:21;;;;;;;7.08;5.25;;;;;;;16.55;53.39;97804.09;1682516;84;25915;-75
2023/01/01 10:34:50;;;;;;;7.55;5.50;;;;;;;16.81;52.80;97791.33;1654926;85;27385;-76
2023/01/01 10:37:17;;;;;;;9.08;5.25;;;;;;;17.16;52.71;97786.28;1683932;84;25900;-75
2023/01/01 10:39:45;;;;;;;8.85;5.35;;;;;;;17.44;52.33;97780.81;1654760;85;25823;-77
2023/01/01 10:42:14;;;;;;;6.90;5.00;;;;;;;17.71;51.67;97770.66;1683758;84;26469;-77
2023/01/01 10:44:42;;;;;;;7.35;4.72;;;;;;;17.90;51.07;97767.95;1654685;85;25776;-75
2023/01/01 10:47:28;;;;;;;7.03;5.22;;;;;;;18.13;50.65;97766.92;1683816;84;27386;-76
2023/01/01 10:49:59;;;;;;;8.45;5.92;;;;;;;18.30;50.63;97767.20;1639338;86;25684;-75
2023/01/01 10:52:34;;;;;;;6.53;4.87;;;;;;;18.55;50.19;97761.25;1684971;85;25790;-75
2023/01/01 10:55:01;;;;;;;7.42;4.85;;;;;;;18.77;49.86;97750.34;1671232;85;25746;-75
2023/01/01 10:57:32;;;;;;;6.85;5.10;;;;;;;19.05;49.57;97754.23;1671141;85;25856;-76
2023/01/01 11:00:24;;;;;;;8.00;5.05;;;;;;;19.25;49.18;97744.03;1671535;85;28323;-75
2023/01/01 11:03:14;;;;;;;9.25;4.97;;;;;;;19.42;48.82;97737.91;1671641;85;26580;-72
2023/01/01 11:06:02;;;;;;;8.05;5.08;;;;;;;19.57;48.59;97737.77;1638822;86;25926;-75
2023/01/01 11:08:32;;;;;;;5.08;4.20;;;;;;;19.48;47.64;97737.39;1638834;86;25744;-77
2023/01/01 11:11:01;;;;;;;5.65;4.50;;;;;;;19.38;47.91;97740.05;1649402;85;25853;-77
2023/01/01 11:13:30;;;;;;;6.22;4.78;;;;;;;19.40;47.56;97732.41;1660700;86;27389;-75
2023/01/01 11:15:57;;;;;;;7.12;4.45;;;;;;;19.52;47.43;97733.09;1660707;85;25832;-76
2023/01/01 11:18:34;;;;;;;7.55;4.72;;;;;;;19.71;47.36;97727.48;1655363;85;25809;-76
2023/01/01 11:20:59;;;;;;;5.95;4.15;;;;;;;20.25;47.01;97729.23;1636034;86;25784;-78
2023/01/01 11:23:33;;;;;;;5.12;3.85;;;;;;;20.25;47.01;97729.23;1647013;86;25860;-75
2023/01/01 11:26:05;;;;;;;5.33;4.22;;;;;;;20.54;46.65;97718.70;1657885;84;28261;-76
2023/01/01 11:28:34;;;;;;;7.42;4.85;;;;;;;20.78;46.13;97722.64;1660383;85;25527;-76
2023/01/01 11:31:16;;;;;;;5.25;4.50;;;;;;;20.96;45.74;97724.91;1667520;85;25586;-75
2023/01/01 11:33:52;;;;;;;5.95;4.60;;;;;;;21.08;45.05;97713.14;1684456;83;25770;-76
2023/01/01 11:36:28;;;;;;;5.30;4.25;;;;;;;21.06;44.26;97719.44;1687228;83;26154;-76
2023/01/01 11:39:22;;;;;;;5.92;4.83;;;;;;;20.89;44.50;97717.46;1686953;84;28231;-76
2023/01/01 11:41:54;;;;;;;5.33;3.90;;;;;;;20.75;43.47;97694.40;1687081;83;25846;-76
2023/01/01 11:44:38;;;;;;;5.22;4.37;;;;;;;20.75;43.47;97694.40;1711122;83;25834;-76
2023/01/01 11:47:06;;;;;;;5.45;4.15;;;;;;;20.04;42.92;97687.19;1712526;83;25776;-77
2023/01/01 11:49:34;;;;;;;5.50;4.28;;;;;;;20.04;42.92;97687.19;1712571;82;25773;-76
2023/01/01 11:52:04;;;;;;;7.17;4.62;;;;;;;19.65;43.28;97680.62;1712404;83;27545;-76
2023/01/01 11:54:36;;;;;;;5.55;4.40;;;;;;;19.49;43.47;97710.34;1705658;83;25764;-76
2023/01/01 11:57:16;;;;;;;5.33;4.65;;;;;;;19.32;43.73;97709.63;1712296;83;25808;-75
2023/01/01 11:59:53;;;;;;;5.70;4.45;;;;;;;19.31;43.94;97710.16;1709412;83;26616;-77
2023/01/01 12:02:44;;;;;;;6.97;4.95;;;;;;;19.37;44.16;97709.11;1705619;82;25811;-76
2023/01/01 12:05:24;;;;;;;8.95;5.67;;;;;;;19.49;43.88;97707.59;1674680;85;27408;-76